createdAt,value
2023-02-21T00:02:22.754Z,22.93
2023-02-21T00:05:07.794Z,17.87
2023-02-21T00:07:52.909Z,15.17
2023-02-21T00:10:39.330Z,12.47
2023-02-21T00:13:25.732Z,13.13
2023-02-21T00:16:10.667Z,16.90
2023-02-21T00:18:56.135Z,18.47
2023-02-21T00:21:41.275Z,19.13
2023-02-21T00:24:27.118Z,15.63
2023-02-21T00:27:13.541Z,16.33
2023-02-21T00:29:58.592Z,14.73
2023-02-21T00:32:43.833Z,10.27
2023-02-21T00:35:28.760Z,11.57
2023-02-21T00:38:13.763Z,13.10
2023-02-21T00:41:14.595Z,13.50
2023-02-21T00:44:03.996Z,18.13
2023-02-21T00:46:51.391Z,23.00
2023-02-21T00:49:36.553Z,13.03
2023-02-21T00:52:22.119Z,15.53
2023-02-21T00:55:07.467Z,15.77
2023-02-21T00:57:52.365Z,16.87
2023-02-21T01:00:44.920Z,13.83
2023-02-21T01:03:30.697Z,9.07
2023-02-21T01:06:15.934Z,16.03
2023-02-21T01:09:01.563Z,11.97
2023-02-21T01:11:46.453Z,9.90
2023-02-21T01:14:32.173Z,12.67
2023-02-21T01:17:18.983Z,9.97
2023-02-21T01:20:03.772Z,9.03
2023-02-21T01:22:49.192Z,13.63
2023-02-21T01:25:34.194Z,11.83
2023-02-21T01:28:19.266Z,13.17
2023-02-21T01:31:05.784Z,14.23
2023-02-21T01:33:54.893Z,10.13
2023-02-21T01:36:39.756Z,12.97
2023-02-21T01:39:24.822Z,10.90
2023-02-21T01:42:12.045Z,11.50
2023-02-21T01:44:58.268Z,11.03
2023-02-21T01:47:43.653Z,9.93
2023-02-21T01:50:32.938Z,11.10
2023-02-21T01:53:18.304Z,8.30
2023-02-21T01:56:03.525Z,12.50
2023-02-21T01:58:52.744Z,13.00
2023-02-21T02:01:50.031Z,9.50
2023-02-21T02:04:34.898Z,16.77
2023-02-21T02:07:21.748Z,10.73
2023-02-21T02:10:06.652Z,15.87
2023-02-21T02:12:42.975Z,10.93
2023-02-21T02:15:21.540Z,13.90
2023-02-21T02:17:58.649Z,9.63
2023-02-21T02:20:41.031Z,12.13
2023-02-21T02:23:35.594Z,10.43
2023-02-21T02:26:15.532Z,11.43
2023-02-21T02:29:02.520Z,11.73
2023-02-21T02:31:38.857Z,11.70
2023-02-21T02:34:21.548Z,11.87
2023-02-21T02:36:53.996Z,12.47
2023-02-21T02:39:25.560Z,10.03
2023-02-21T02:41:57.016Z,10.10
2023-02-21T02:44:27.886Z,12.87
2023-02-21T02:46:57.234Z,10.10
2023-02-21T02:49:26.211Z,12.17
2023-02-21T02:51:55.248Z,14.30
2023-02-21T02:54:23.088Z,11.00
2023-02-21T02:56:50.728Z,13.03
2023-02-21T02:59:20.486Z,11.80
2023-02-21T03:02:09.402Z,9.53
2023-02-21T03:05:10.358Z,9.67
2023-02-21T03:07:46.755Z,7.97
2023-02-21T03:10:18.742Z,10.00
2023-02-21T03:12:49.058Z,9.23
2023-02-21T03:15:19.013Z,6.90
2023-02-21T03:17:51.501Z,11.87
2023-02-21T03:20:19.863Z,8.13
2023-02-21T03:22:49.552Z,12.60
2023-02-21T03:25:17.828Z,7.97
2023-02-21T03:27:45.332Z,14.23
2023-02-21T03:30:13.795Z,8.27
2023-02-21T03:32:44.579Z,15.53
2023-02-21T03:35:12.076Z,9.43
2023-02-21T03:37:40.957Z,9.70
2023-02-21T03:40:11.385Z,13.17
2023-02-21T03:42:38.884Z,12.40
2023-02-21T03:45:06.477Z,12.20
2023-02-21T03:47:34.016Z,10.47
2023-02-21T03:50:01.644Z,8.07
2023-02-21T03:52:29.123Z,11.50
2023-02-21T03:54:56.559Z,12.27
2023-02-21T03:57:25.353Z,9.47
2023-02-21T03:59:53.309Z,15.93
2023-02-21T04:02:21.173Z,10.20
2023-02-21T04:04:49.228Z,10.80
2023-02-21T04:07:17.282Z,11.70
2023-02-21T04:09:44.723Z,13.37
2023-02-21T04:12:12.626Z,17.00
2023-02-21T04:14:41.593Z,13.83
2023-02-21T04:17:11.482Z,10.53
2023-02-21T04:19:38.889Z,11.03
2023-02-21T04:22:06.356Z,10.97
2023-02-21T04:24:33.870Z,11.97
2023-02-21T04:27:02.162Z,12.73
2023-02-21T04:29:29.689Z,11.60
2023-02-21T04:31:58.679Z,8.87
2023-02-21T04:34:26.163Z,14.70
2023-02-21T04:36:53.769Z,11.10
2023-02-21T04:39:21.314Z,11.17
2023-02-21T04:41:48.924Z,14.77
2023-02-21T04:44:18.130Z,12.80
2023-02-21T04:46:45.603Z,10.80
2023-02-21T04:49:14.713Z,12.20
2023-02-21T04:51:42.276Z,8.10
2023-02-21T04:54:09.764Z,7.53
2023-02-21T04:56:38.003Z,13.50
2023-02-21T04:59:05.545Z,6.37
2023-02-21T05:01:33.293Z,9.30
2023-02-21T05:04:01.479Z,7.17
2023-02-21T05:06:31.076Z,9.80
2023-02-21T05:08:58.708Z,10.80
2023-02-21T05:11:26.221Z,7.50
2023-02-21T05:13:53.819Z,9.60
2023-02-21T05:16:21.717Z,7.70
2023-02-21T05:18:49.641Z,8.90
2023-02-21T05:21:17.665Z,9.10
2023-02-21T05:23:55.587Z,7.87
2023-02-21T05:26:24.279Z,10.90
2023-02-21T05:28:54.759Z,7.13
2023-02-21T05:31:22.775Z,7.47
2023-02-21T05:33:51.893Z,10.23
2023-02-21T05:36:19.513Z,13.40
2023-02-21T05:38:49.132Z,8.80
2023-02-21T05:41:17.419Z,11.00
2023-02-21T05:43:45.573Z,11.77
2023-02-21T05:46:24.359Z,11.53
2023-02-21T05:48:53.933Z,15.27
2023-02-21T05:51:21.551Z,18.93
2023-02-21T05:53:52.546Z,11.00
2023-02-21T05:56:20.191Z,12.87
2023-02-21T05:58:47.789Z,24.53
2023-02-21T06:01:18.867Z,13.97
2023-02-21T06:03:46.452Z,13.27
2023-02-21T06:06:15.632Z,15.20
2023-02-21T06:08:44.040Z,14.03
2023-02-21T06:11:13.621Z,9.00
2023-02-21T06:13:41.359Z,12.40
2023-02-21T06:16:09.375Z,13.77
2023-02-21T06:18:36.919Z,11.97
2023-02-21T06:21:04.444Z,9.37
2023-02-21T06:23:31.881Z,13.57
2023-02-21T06:25:59.345Z,13.40
2023-02-21T06:28:30.411Z,10.80
2023-02-21T06:30:58.006Z,13.33
2023-02-21T06:33:25.679Z,20.13
2023-02-21T06:35:55.957Z,11.37
2023-02-21T06:38:23.427Z,13.33
2023-02-21T06:40:51.648Z,12.40
2023-02-21T06:43:19.216Z,12.80
2023-02-21T06:45:47.996Z,15.60
2023-02-21T06:48:16.145Z,17.87
2023-02-21T06:50:43.628Z,14.67
2023-02-21T06:53:11.192Z,17.87
2023-02-21T06:55:38.631Z,18.50
2023-02-21T06:58:06.717Z,16.83
2023-02-21T07:00:34.138Z,9.37
2023-02-21T07:03:02.994Z,9.10
2023-02-21T07:05:34.480Z,11.70
2023-02-21T07:08:01.942Z,9.53
2023-02-21T07:10:29.780Z,16.73
2023-02-21T07:12:57.601Z,47.73
2023-02-21T07:15:25.087Z,30.97
2023-02-21T07:17:52.712Z,18.27
2023-02-21T07:20:21.520Z,15.03
2023-02-21T07:22:49.053Z,19.27
2023-02-21T07:25:17.649Z,15.07
2023-02-21T07:27:45.084Z,18.70
2023-02-21T07:30:13.051Z,12.00
2023-02-21T07:32:40.529Z,13.23
2023-02-21T07:35:08.575Z,11.60
2023-02-21T07:37:37.403Z,12.80
2023-02-21T07:40:07.550Z,11.70
2023-02-21T07:42:35.174Z,9.57
2023-02-21T07:45:02.706Z,14.70
2023-02-21T07:47:30.187Z,13.30
2023-02-21T07:49:57.641Z,11.13
2023-02-21T07:52:25.047Z,9.70
2023-02-21T07:54:53.805Z,18.43
2023-02-21T07:57:21.298Z,15.97
2023-02-21T07:59:49.288Z,10.60
2023-02-21T08:02:16.772Z,12.70
2023-02-21T08:04:44.298Z,10.10
2023-02-21T08:07:11.792Z,12.23
2023-02-21T08:09:39.811Z,8.07
2023-02-21T08:12:08.834Z,9.30
2023-02-21T08:14:36.265Z,12.87
2023-02-21T08:17:03.816Z,9.00
2023-02-21T08:19:31.332Z,8.67
2023-02-21T08:21:58.716Z,7.20
2023-02-21T08:24:26.157Z,5.97
2023-02-21T08:26:53.628Z,7.43
2023-02-21T08:29:22.511Z,9.50
2023-02-21T08:31:50.059Z,9.93
2023-02-21T08:34:17.474Z,10.65
2023-02-21T08:36:45.111Z,11.67
2023-02-21T08:39:12.686Z,7.13
2023-02-21T08:41:40.716Z,10.77
2023-02-21T08:44:08.244Z,10.77
2023-02-21T08:46:39.362Z,10.47
2023-02-21T08:49:07.192Z,11.50
2023-02-21T08:51:35.023Z,12.63
2023-02-21T08:54:03.323Z,13.30
2023-02-21T08:56:31.499Z,12.90
2023-02-21T08:58:59.124Z,9.90
2023-02-21T09:01:31.470Z,9.07
2023-02-21T09:04:00.325Z,7.68
2023-02-21T09:06:27.764Z,11.85
2023-02-21T09:08:55.215Z,8.88
2023-02-21T09:11:22.703Z,13.15
2023-02-21T09:13:50.165Z,9.10
2023-02-21T09:16:17.640Z,8.57
2023-02-21T09:18:45.051Z,9.85
2023-02-21T09:21:13.975Z,11.13
2023-02-21T09:23:41.556Z,10.63
2023-02-21T09:26:09.054Z,8.40
2023-02-21T09:28:43.272Z,7.45
2023-02-21T09:31:10.862Z,10.20
2023-02-21T09:33:40.966Z,10.68
2023-02-21T09:36:09.138Z,9.60
2023-02-21T09:38:41.961Z,10.38
2023-02-21T09:41:10.534Z,9.40
2023-02-21T09:43:39.373Z,12.27
2023-02-21T09:46:10.408Z,9.57
2023-02-21T09:48:38.211Z,8.95
2023-02-21T09:51:07.879Z,15.10
2023-02-21T09:53:38.170Z,6.18
2023-02-21T09:56:08.558Z,8.25
2023-02-21T09:58:37.418Z,7.35
2023-02-21T10:01:07.846Z,9.73
2023-02-21T10:03:46.843Z,11.80
2023-02-21T10:06:23.976Z,7.72
2023-02-21T10:08:54.791Z,7.25
2023-02-21T10:11:36.069Z,8.13
2023-02-21T10:14:07.211Z,4.63
2023-02-21T10:16:37.405Z,7.57
2023-02-21T10:19:08.436Z,4.80
2023-02-21T10:21:37.335Z,5.25
2023-02-21T10:24:11.807Z,6.30
2023-02-21T10:26:42.402Z,8.90
2023-02-21T10:29:12.669Z,6.60
2023-02-21T10:31:41.047Z,6.25
2023-02-21T10:34:12.123Z,5.97
2023-02-21T10:36:40.005Z,6.10
2023-02-21T10:39:11.590Z,9.38
2023-02-21T10:41:42.662Z,4.00
2023-02-21T10:44:11.684Z,6.43
2023-02-21T10:46:41.356Z,4.20
2023-02-21T10:49:21.418Z,4.38
2023-02-21T10:51:48.876Z,3.97
2023-02-21T10:54:21.260Z,4.30
2023-02-21T10:56:51.408Z,3.00
2023-02-21T10:59:23.516Z,5.18
2023-02-21T11:01:51.180Z,2.72
2023-02-21T11:04:27.279Z,3.88
2023-02-21T11:06:55.923Z,1.75
2023-02-21T11:09:32.360Z,2.42
2023-02-21T11:12:05.324Z,4.45
2023-02-21T11:14:33.682Z,2.60
2023-02-21T11:17:15.681Z,3.70
2023-02-21T11:19:44.172Z,3.50
2023-02-21T11:22:11.996Z,1.95
2023-02-21T11:24:53.880Z,2.80
2023-02-21T11:27:23.064Z,1.92
2023-02-21T11:29:51.132Z,1.55
2023-02-21T11:32:25.956Z,1.13
2023-02-21T11:35:01.985Z,1.20
2023-02-21T11:37:30.025Z,1.35
2023-02-21T11:39:57.593Z,1.25
2023-02-21T11:42:28.941Z,1.40
2023-02-21T11:45:21.874Z,1.23
2023-02-21T11:47:54.885Z,1.98
2023-02-21T11:50:24.399Z,1.83
2023-02-21T11:52:55.415Z,1.65
2023-02-21T11:55:26.374Z,1.55
2023-02-21T11:58:02.808Z,2.72
2023-02-21T12:00:32.438Z,1.50
2023-02-21T12:03:07.561Z,3.28
2023-02-21T12:05:46.640Z,1.65
2023-02-21T12:08:36.565Z,1.55
2023-02-21T12:11:09.421Z,1.60
2023-02-21T12:13:43.560Z,2.88
2023-02-21T12:16:13.055Z,3.28
2023-02-21T12:18:47.693Z,3.97
2023-02-21T12:21:36.034Z,1.90
2023-02-21T12:24:08.537Z,2.47
2023-02-21T12:26:44.910Z,2.00
2023-02-21T12:29:21.505Z,3.42
2023-02-21T12:31:56.399Z,3.20
2023-02-21T12:34:31.610Z,2.00
2023-02-21T12:37:10.316Z,1.92
2023-02-21T12:39:45.584Z,1.85
2023-02-21T12:42:26.629Z,1.45
2023-02-21T12:45:00.383Z,2.65
2023-02-21T12:47:30.158Z,1.95
2023-02-21T12:50:01.646Z,1.90
2023-02-21T12:52:31.359Z,1.70
2023-02-21T12:55:01.686Z,3.00
2023-02-21T12:57:32.703Z,2.30
2023-02-21T13:00:08.262Z,2.17
2023-02-21T13:02:40.923Z,2.03
2023-02-21T13:05:13.768Z,2.65
2023-02-21T13:07:44.976Z,2.30
2023-02-21T13:10:16.749Z,2.60
2023-02-21T13:12:46.131Z,2.72
2023-02-21T13:15:20.516Z,2.47
2023-02-21T13:18:02.342Z,2.85
2023-02-21T13:20:34.174Z,2.65
2023-02-21T13:23:38.223Z,1.80
2023-02-21T13:26:19.547Z,1.40
2023-02-21T13:28:47.861Z,2.45
2023-02-21T13:31:21.752Z,3.80
2023-02-21T13:33:52.606Z,1.40
2023-02-21T13:36:22.944Z,1.55
2023-02-21T13:38:58.876Z,1.42
2023-02-21T13:41:28.611Z,1.60
2023-02-21T13:43:56.813Z,1.50
2023-02-21T13:46:46.588Z,1.45
2023-02-21T13:49:32.778Z,1.85
2023-02-21T13:52:15.451Z,2.15
2023-02-21T13:54:57.938Z,2.03
2023-02-21T13:57:31.791Z,1.42
2023-02-21T13:59:59.371Z,2.05
2023-02-21T14:02:32.880Z,1.80
2023-02-21T14:05:09.732Z,1.40
2023-02-21T14:07:48.297Z,1.92
2023-02-21T14:10:23.569Z,1.30
2023-02-21T14:12:56.350Z,1.20
2023-02-21T14:15:23.996Z,2.38
2023-02-21T14:17:54.152Z,2.53
2023-02-21T14:20:23.217Z,1.23
2023-02-21T14:22:51.491Z,1.42
2023-02-21T14:25:20.551Z,1.30
2023-02-21T14:27:48.081Z,1.40
2023-02-21T14:30:17.576Z,1.35
2023-02-21T14:32:46.381Z,1.55
2023-02-21T14:35:24.888Z,2.15
2023-02-21T14:37:54.719Z,1.73
2023-02-21T14:40:27.531Z,1.23
2023-02-21T14:43:13.031Z,1.35
2023-02-21T14:45:50.938Z,2.25
2023-02-21T14:48:24.448Z,1.60
2023-02-21T14:51:05.933Z,1.30
2023-02-21T14:53:51.383Z,1.77
2023-02-21T14:56:27.214Z,1.25
2023-02-21T14:59:15.522Z,1.05
2023-02-21T15:01:49.641Z,1.85
2023-02-21T15:04:21.665Z,1.85
2023-02-21T15:06:58.281Z,1.38
2023-02-21T15:09:25.840Z,1.20
2023-02-21T15:11:53.397Z,2.20
2023-02-21T15:14:25.225Z,1.35
2023-02-21T15:16:57.118Z,1.27
2023-02-21T15:19:26.585Z,1.10
2023-02-21T15:22:12.057Z,3.05
2023-02-21T15:24:41.133Z,1.35
2023-02-21T15:27:11.884Z,2.45
2023-02-21T15:29:39.436Z,2.50
2023-02-21T15:32:08.050Z,2.53
2023-02-21T15:34:39.075Z,2.92
2023-02-21T15:37:13.691Z,3.47
2023-02-21T15:39:46.676Z,1.95
2023-02-21T15:42:15.611Z,1.50
2023-02-21T15:44:45.877Z,4.70
2023-02-21T15:47:14.648Z,2.95
2023-02-21T15:49:43.425Z,2.53
2023-02-21T15:52:25.826Z,1.20
2023-02-21T15:55:13.711Z,2.20
2023-02-21T15:57:41.389Z,1.40
2023-02-21T16:00:18.596Z,1.50
2023-02-21T16:02:46.324Z,1.42
2023-02-21T16:05:24.202Z,1.63
2023-02-21T16:07:54.126Z,7.38
2023-02-21T16:10:24.612Z,2.40
2023-02-21T16:12:56.665Z,1.90
2023-02-21T16:15:25.437Z,3.60
2023-02-21T16:17:54.050Z,3.63
2023-02-21T16:20:24.892Z,2.40
2023-02-21T16:23:07.335Z,5.90
2023-02-21T16:25:48.336Z,5.63
2023-02-21T16:28:15.927Z,2.75
2023-02-21T16:30:43.586Z,2.70
2023-02-21T16:33:13.892Z,3.95
2023-02-21T16:35:41.594Z,8.05
2023-02-21T16:38:12.423Z,5.97
2023-02-21T16:40:41.587Z,3.65
2023-02-21T16:43:09.114Z,3.70
2023-02-21T16:45:36.678Z,3.30
2023-02-21T16:48:05.700Z,2.55
2023-02-21T16:50:35.726Z,2.72
2023-02-21T16:53:03.792Z,2.85
2023-02-21T16:55:31.695Z,5.00
2023-02-21T16:58:03.536Z,2.25
2023-02-21T17:00:31.794Z,5.32
2023-02-21T17:02:59.632Z,5.18
2023-02-21T17:05:27.393Z,5.22
2023-02-21T17:07:56.039Z,7.30
2023-02-21T17:10:23.911Z,9.55
2023-02-21T17:12:51.520Z,6.30
2023-02-21T17:15:21.684Z,7.45
2023-02-21T17:17:53.382Z,10.48
2023-02-21T17:20:21.591Z,4.38
2023-02-21T17:22:49.365Z,6.03
2023-02-21T17:25:17.235Z,16.15
2023-02-21T17:27:44.979Z,7.30
2023-02-21T17:30:13.617Z,5.03
2023-02-21T17:32:43.701Z,5.03
2023-02-21T17:35:14.778Z,7.85
2023-02-21T17:37:42.827Z,9.77
2023-02-21T17:40:11.370Z,5.07
2023-02-21T17:42:40.305Z,7.28
2023-02-21T17:45:08.542Z,7.45
2023-02-21T17:47:36.582Z,5.72
2023-02-21T17:50:06.662Z,5.50
2023-02-21T17:52:34.303Z,10.38
2023-02-21T17:55:08.152Z,11.23
2023-02-21T17:57:38.596Z,7.28
2023-02-21T18:00:10.313Z,4.80
2023-02-21T18:02:37.947Z,6.53
2023-02-21T18:05:08.536Z,9.38
2023-02-21T18:07:36.230Z,6.57
2023-02-21T18:10:04.269Z,20.98
2023-02-21T18:12:33.334Z,9.52
2023-02-21T18:15:01.286Z,5.63
2023-02-21T18:17:29.472Z,7.90
2023-02-21T18:19:57.182Z,7.68
2023-02-21T18:22:26.337Z,9.77
2023-02-21T18:24:53.921Z,10.13
2023-02-21T18:27:21.633Z,10.02
2023-02-21T18:29:54.322Z,4.80
2023-02-21T18:32:21.945Z,9.30
2023-02-21T18:34:51.440Z,7.05
2023-02-21T18:37:19.112Z,5.55
2023-02-21T18:39:51.820Z,5.63
2023-02-21T18:42:20.223Z,6.03
2023-02-21T18:44:47.846Z,10.88
2023-02-21T18:47:17.631Z,5.07
2023-02-21T18:49:45.339Z,6.32
2023-02-21T18:52:13.382Z,9.63
2023-02-21T18:54:44.195Z,9.77
2023-02-21T18:57:14.509Z,7.47
2023-02-21T18:59:42.098Z,8.13
2023-02-21T19:02:12.329Z,8.18
2023-02-21T19:04:41.619Z,10.48
2023-02-21T19:07:09.524Z,12.07
2023-02-21T19:09:37.062Z,10.82
2023-02-21T19:12:05.034Z,9.43
2023-02-21T19:14:34.017Z,10.40
2023-02-21T19:17:05.202Z,6.00
2023-02-21T19:19:33.764Z,11.32
2023-02-21T19:22:01.353Z,11.18
2023-02-21T19:24:28.935Z,11.23
2023-02-21T19:26:56.572Z,9.75
2023-02-21T19:29:24.206Z,11.43
2023-02-21T19:31:54.138Z,7.88
2023-02-21T19:34:22.002Z,4.85
2023-02-21T19:36:50.180Z,6.45
2023-02-21T19:39:17.761Z,7.15
2023-02-21T19:41:45.879Z,8.63
2023-02-21T19:44:13.812Z,6.57
2023-02-21T19:46:41.440Z,10.50
2023-02-21T19:49:17.551Z,11.05
2023-02-21T19:51:45.640Z,11.70
2023-02-21T19:54:13.255Z,10.35
2023-02-21T19:56:40.895Z,10.68
2023-02-21T19:59:08.566Z,11.20
2023-02-21T20:01:36.326Z,12.38
2023-02-21T20:04:04.122Z,11.50
2023-02-21T20:06:35.338Z,9.23
2023-02-21T20:09:03.070Z,12.48
2023-02-21T20:11:30.628Z,24.02
2023-02-21T20:13:58.420Z,17.02
2023-02-21T20:16:28.063Z,10.15
2023-02-21T20:18:57.479Z,11.00
2023-02-21T20:21:26.334Z,12.68
2023-02-21T20:23:55.375Z,9.98
2023-02-21T20:26:23.427Z,10.73
2023-02-21T20:28:51.670Z,9.20
2023-02-21T20:31:20.444Z,20.38
2023-02-21T20:33:48.917Z,14.25
2023-02-21T20:36:16.900Z,10.63
2023-02-21T20:38:44.431Z,17.70
2023-02-21T20:41:14.136Z,18.65
2023-02-21T20:43:42.288Z,19.50
2023-02-21T20:46:11.877Z,20.52
2023-02-21T20:48:39.583Z,14.23
2023-02-21T20:51:10.019Z,12.25
2023-02-21T20:53:37.601Z,12.93
2023-02-21T20:56:05.484Z,13.73
2023-02-21T20:58:34.686Z,14.18
2023-02-21T21:01:02.322Z,15.00
2023-02-21T21:03:30.353Z,14.18
2023-02-21T21:05:58.109Z,26.17
2023-02-21T21:08:26.837Z,17.63
2023-02-21T21:10:54.408Z,25.45
2023-02-21T21:13:21.999Z,10.45
2023-02-21T21:15:50.921Z,9.13
2023-02-21T21:18:18.487Z,16.60
2023-02-21T21:20:46.011Z,14.85
2023-02-21T21:23:13.531Z,9.57
2023-02-21T21:25:41.603Z,9.00
2023-02-21T21:28:13.126Z,16.52
2023-02-21T21:30:42.628Z,18.35
2023-02-21T21:33:11.772Z,15.30
2023-02-21T21:35:39.426Z,19.45
2023-02-21T21:38:07.575Z,14.57
2023-02-21T21:40:35.157Z,16.07
2023-02-21T21:43:06.830Z,15.90
2023-02-21T21:45:44.420Z,15.25
2023-02-21T21:48:14.983Z,16.42
2023-02-21T21:50:43.747Z,17.13
2023-02-21T21:53:11.590Z,16.17
2023-02-21T21:55:39.347Z,19.80
2023-02-21T21:58:10.460Z,19.73
2023-02-21T22:00:42.012Z,15.50
2023-02-21T22:03:14.127Z,14.00
2023-02-21T22:05:47.716Z,12.60
2023-02-21T22:08:17.916Z,12.93
2023-02-21T22:10:46.087Z,11.95
2023-02-21T22:13:14.728Z,15.03
2023-02-21T22:15:43.462Z,10.47
2023-02-21T22:18:11.365Z,13.23
2023-02-21T22:20:38.962Z,13.17
2023-02-21T22:23:08.181Z,11.98
2023-02-21T22:25:37.717Z,14.27
2023-02-21T22:28:09.367Z,14.33
2023-02-21T22:30:38.214Z,14.55
2023-02-21T22:33:06.114Z,11.55
2023-02-21T22:35:33.779Z,15.27
2023-02-21T22:38:03.049Z,13.00
2023-02-21T22:40:35.472Z,10.37
2023-02-21T22:43:05.370Z,13.80
2023-02-21T22:45:33.401Z,9.50
2023-02-21T22:48:02.723Z,10.87
2023-02-21T22:50:32.444Z,15.30
2023-02-21T22:53:02.387Z,17.03
2023-02-21T22:55:30.452Z,14.47
2023-02-21T22:58:01.186Z,17.97
2023-02-21T23:00:33.147Z,15.90
2023-02-21T23:03:01.357Z,19.40
2023-02-21T23:05:29.242Z,19.63
2023-02-21T23:07:58.539Z,17.33
2023-02-21T23:10:26.951Z,11.17
2023-02-21T23:12:55.739Z,15.88
2023-02-21T23:15:25.149Z,12.43
2023-02-21T23:17:52.926Z,12.60
2023-02-21T23:20:22.247Z,11.53
2023-02-21T23:22:51.294Z,9.07
2023-02-21T23:25:23.211Z,13.88
2023-02-21T23:27:52.273Z,8.95
2023-02-21T23:30:20.861Z,9.48
2023-02-21T23:32:50.071Z,8.95
2023-02-21T23:35:17.762Z,8.73
2023-02-21T23:37:45.288Z,14.00
2023-02-21T23:40:17.495Z,13.95
2023-02-21T23:42:45.764Z,16.10
2023-02-21T23:45:14.005Z,11.65
2023-02-21T23:47:43.082Z,18.08
2023-02-21T23:50:17.242Z,12.68
2023-02-21T23:52:46.838Z,14.47
2023-02-21T23:55:14.884Z,12.88
2023-02-21T23:57:43.928Z,14.27
